РПИ Астана

РПИ Астана является структурным подразделением дивизиона VATRUS сети VATSIM.

РПИ осуществляет свою деятельность в границах Акмолинской, Карагандинской, Павлодарской, Северо-Казахстанской и Костанайской областей Республики Казахстан.

Схемы и аэронавигационную информацию можно получить на сайте   Казаэронавигация

Официальный Discord сервер региона Казахстан в VATSIM: https://discord.gg/eERFMeb2xR

Средства связи ОВД:

UACN_CTR - Астана Контроль - 132.800

RU-CEN_FSS - Азия Центр  - 132.850 (РПИ: UACN, UAAA, UAII, UATT, UTAA, UCFM, UTAT, UTDD, UTTR,  UCFO,  UTSD, UTAV,  UTAK)

Лого Астана
Руководство

Evgeny Vygornitsky*

Куратор

Dmitriy Bannov

Помощник куратора по Казахстану

Aleksandr Sokolov

Помощник куратора по Казахстану
Инструкторы РПИ
Aleksandr Sokolov (Instructor)
Dmitriy Bannov (Instructor)
Evgeny Vygornitsky (Supervisor)
Входит в состав
Центральная Азия

Диспетчеры РПИ

Диспетчер Рейтинг Допуски *
Aleksandr Sokolov Instructor UACN_CTR
Anatoly Zhilkin Controller UACN_CTR
Dmitriy Bannov Instructor UACN_CTR
Alikhan Aidarbek Student UACC_TWR
Alikhan Omarov Student UACC_GND
Artem Kuzmenko Student 2 UACC_TWR
Damir Minyafov Student UACC_GND
Ilya Potapov Student UACC_GND, UACC_TWR*
Kirill Ardatov Senior Student UACC_APP
Maxim Nazyrov Student 2 UACC_TWR, UACC_APP*
Mikhail Duzenko Student UACC_GND, UACC_TWR*
Nikita Zikeev Senior Student UACC_APP
Viktor Ivanov Instructor UACC_APP

Аэропорты РПИ

ICAO Город Название Погода
UACC Астана Астана UACC 190630Z 07004MPS 010V110 CAVOK 21/08 Q1019 NOSIG RMK QFE733/0978
UAKK Караганда Караганда UAKK 190630Z 05004MPS 010V090 CAVOK 20/07 Q1019 NOSIG RMK QFE717/0956
UAKD Жезказган Жезказган UAKD 190630Z 07009MPS CAVOK 26/M01 Q1016 NOSIG RMK QFE728/0971
UACK Кокшетау Кокшетау UACK 190630Z 20002MPS 140V260 CAVOK 22/11 Q1019 NOSIG RMK QFE740/0987
UAUU Костанай Костанай UAUU 190630Z 18008MPS 9999 SCT052CB 25/10 Q1016 NOSIG RMK QFE745/0994
UASP Павлодар Павлодар UASP 190630Z 31006MPS 280V340 CAVOK 21/05 Q1018 NOSIG RMK QFE753/1004
UACP Петропавловск Петропавловск UACP 190630Z 22006MPS CAVOK 23/11 Q1017 NOSIG RMK QFE750/1000